createdAt,value
2023-03-22T00:00:16.546Z,36.34
2023-03-22T00:00:47.948Z,36.57
2023-03-22T00:01:19.366Z,36.28
2023-03-22T00:01:50.775Z,36.25
2023-03-22T00:02:22.199Z,36.26
2023-03-22T00:02:53.679Z,36.32
2023-03-22T00:03:25.144Z,36.05
2023-03-22T00:03:56.679Z,36.05
2023-03-22T00:04:28.157Z,36.14
2023-03-22T00:04:59.570Z,36.48
2023-03-22T00:05:30.957Z,36.65
2023-03-22T00:06:02.380Z,36.34
2023-03-22T00:06:33.796Z,36.27
2023-03-22T00:07:05.213Z,36.64
2023-03-22T00:07:36.628Z,36.21
2023-03-22T00:08:08.027Z,36.43
2023-03-22T00:08:39.458Z,36.08
2023-03-22T00:09:10.875Z,36.77
2023-03-22T00:09:42.284Z,36.59
2023-03-22T00:10:13.717Z,36.51
2023-03-22T00:10:45.132Z,36.46
2023-03-22T00:11:16.525Z,36.36
2023-03-22T00:11:47.922Z,36.39
2023-03-22T00:12:19.367Z,36.43
2023-03-22T00:12:50.804Z,36.45
2023-03-22T00:13:22.220Z,36.76
2023-03-22T00:13:53.642Z,36.45
2023-03-22T00:14:25.075Z,36.32
2023-03-22T00:14:56.462Z,36.39
2023-03-22T00:15:27.846Z,36.04
2023-03-22T00:15:59.237Z,36.63
2023-03-22T00:16:30.733Z,36.83
2023-03-22T00:17:02.155Z,36.52
2023-03-22T00:17:33.567Z,36.56
2023-03-22T00:18:04.978Z,36.76
2023-03-22T00:18:36.393Z,36.44
2023-03-22T00:19:07.859Z,36.34
2023-03-22T00:19:39.264Z,36.79
2023-03-22T00:20:10.675Z,36.56
2023-03-22T00:20:42.083Z,36.43
2023-03-22T00:21:13.532Z,36.65
2023-03-22T00:21:44.981Z,36.75
2023-03-22T00:22:16.396Z,36.89
2023-03-22T00:22:47.783Z,36.44
2023-03-22T00:23:19.173Z,36.63
2023-03-22T00:23:50.576Z,36.20
2023-03-22T00:24:22.030Z,36.35
2023-03-22T00:24:53.458Z,36.59
2023-03-22T00:25:24.876Z,36.19
2023-03-22T00:25:56.314Z,36.68
2023-03-22T00:26:27.743Z,36.48
2023-03-22T00:26:59.185Z,36.38
2023-03-22T00:27:30.598Z,36.75
2023-03-22T00:28:02.017Z,36.60
2023-03-22T00:28:33.432Z,36.58
2023-03-22T00:29:04.864Z,36.62
2023-03-22T00:29:36.373Z,36.43
2023-03-22T00:30:07.771Z,36.54
2023-03-22T00:30:39.426Z,36.61
2023-03-22T00:31:11.005Z,36.05
2023-03-22T00:31:42.479Z,36.38
2023-03-22T00:32:13.903Z,36.74
2023-03-22T00:32:45.366Z,36.31
2023-03-22T00:33:16.783Z,36.75
2023-03-22T00:33:48.201Z,36.15
2023-03-22T00:34:19.624Z,36.36
2023-03-22T00:34:51.015Z,36.74
2023-03-22T00:35:22.476Z,36.54
2023-03-22T00:35:53.935Z,36.55
2023-03-22T00:36:25.347Z,36.39
2023-03-22T00:36:56.785Z,36.49
2023-03-22T00:37:28.196Z,36.10
2023-03-22T00:37:59.613Z,36.86
2023-03-22T00:38:41.706Z,36.56
2023-03-22T00:39:14.107Z,36.15
2023-03-22T00:39:45.523Z,36.48
2023-03-22T00:40:18.358Z,36.10
2023-03-22T00:40:49.868Z,36.44
2023-03-22T00:41:21.287Z,36.43
2023-03-22T00:41:52.709Z,36.52
2023-03-22T00:42:24.109Z,36.67
2023-03-22T00:42:55.515Z,36.44
2023-03-22T00:43:26.947Z,36.86
2023-03-22T00:43:58.360Z,36.52
2023-03-22T00:44:29.760Z,36.37
2023-03-22T00:45:01.243Z,36.32
2023-03-22T00:45:32.660Z,36.34
2023-03-22T00:46:04.086Z,36.61
2023-03-22T00:46:35.540Z,36.12
2023-03-22T00:47:06.997Z,36.75
2023-03-22T00:47:38.397Z,36.16
2023-03-22T00:48:09.851Z,36.34
2023-03-22T00:48:41.281Z,36.57
2023-03-22T00:49:12.681Z,36.44
2023-03-22T00:49:44.080Z,36.39
2023-03-22T00:50:15.530Z,36.37
2023-03-22T00:50:46.925Z,36.59
2023-03-22T00:51:18.310Z,36.92
2023-03-22T00:51:49.724Z,36.83
2023-03-22T00:52:21.147Z,36.45
2023-03-22T00:52:52.562Z,36.29
2023-03-22T00:53:23.959Z,36.47
2023-03-22T00:53:55.354Z,36.30
2023-03-22T00:54:26.744Z,36.23
2023-03-22T00:54:58.150Z,36.53
2023-03-22T00:55:29.588Z,36.60
2023-03-22T00:56:00.989Z,36.66
2023-03-22T00:56:32.392Z,36.09
2023-03-22T00:57:03.787Z,36.24
2023-03-22T00:57:35.188Z,36.07
2023-03-22T00:58:06.590Z,36.76
2023-03-22T00:58:37.993Z,36.55
2023-03-22T00:59:09.408Z,36.41
2023-03-22T00:59:40.806Z,36.46
2023-03-22T01:00:12.216Z,36.47
2023-03-22T01:00:43.689Z,36.63
2023-03-22T01:01:15.342Z,36.09
2023-03-22T01:01:46.883Z,36.60
2023-03-22T01:02:18.285Z,36.54
2023-03-22T01:02:49.679Z,36.35
2023-03-22T01:03:21.127Z,36.28
2023-03-22T01:03:52.578Z,36.82
2023-03-22T01:04:24.036Z,36.62
2023-03-22T01:04:55.454Z,36.24
2023-03-22T01:05:26.867Z,36.67
2023-03-22T01:05:58.327Z,36.35
2023-03-22T01:06:29.751Z,37.05
2023-03-22T01:07:01.191Z,36.34
2023-03-22T01:07:32.604Z,36.21
2023-03-22T01:08:04.003Z,36.81
2023-03-22T01:08:35.414Z,36.88
2023-03-22T01:09:06.805Z,36.37
2023-03-22T01:09:38.218Z,36.50
2023-03-22T01:10:09.631Z,36.76
2023-03-22T01:10:41.229Z,36.57
2023-03-22T01:11:12.724Z,36.99
2023-03-22T01:11:44.187Z,36.45
2023-03-22T01:12:15.608Z,37.02
2023-03-22T01:12:46.998Z,36.71
2023-03-22T01:13:18.417Z,36.52
2023-03-22T01:13:49.845Z,36.48
2023-03-22T01:14:21.260Z,36.60
2023-03-22T01:14:52.675Z,36.43
2023-03-22T01:15:24.078Z,36.42
2023-03-22T01:15:55.490Z,36.57
2023-03-22T01:16:26.960Z,36.54
2023-03-22T01:16:58.455Z,36.63
2023-03-22T01:17:29.892Z,36.86
2023-03-22T01:18:01.291Z,36.66
2023-03-22T01:18:32.714Z,36.61
2023-03-22T01:19:04.116Z,36.60
2023-03-22T01:19:35.576Z,36.75
2023-03-22T01:20:06.989Z,36.54
2023-03-22T01:20:38.872Z,36.85
2023-03-22T01:21:10.465Z,36.96
2023-03-22T01:21:41.916Z,36.61
2023-03-22T01:22:13.358Z,36.77
2023-03-22T01:22:44.753Z,36.54
2023-03-22T01:23:16.148Z,36.48
2023-03-22T01:23:47.539Z,36.68
2023-03-22T01:24:19.166Z,36.79
2023-03-22T01:24:50.582Z,37.12
2023-03-22T01:25:21.997Z,37.19
2023-03-22T01:25:53.399Z,36.61
2023-03-22T01:26:24.826Z,36.70
2023-03-22T01:26:56.259Z,36.65
2023-03-22T01:27:27.700Z,37.18
2023-03-22T01:27:59.102Z,36.95
2023-03-22T01:28:30.528Z,36.64
2023-03-22T01:29:01.946Z,36.56
2023-03-22T01:29:33.363Z,36.58
2023-03-22T01:30:04.766Z,36.71
2023-03-22T01:30:36.238Z,36.68
2023-03-22T01:31:07.736Z,36.95
2023-03-22T01:31:39.153Z,36.79
2023-03-22T01:32:10.603Z,36.73
2023-03-22T01:32:42.035Z,36.82
2023-03-22T01:33:13.468Z,37.01
2023-03-22T01:33:44.864Z,36.64
2023-03-22T01:34:16.293Z,36.79
2023-03-22T01:34:47.710Z,36.71
2023-03-22T01:35:19.133Z,37.17
2023-03-22T01:35:50.587Z,36.93
2023-03-22T01:36:22.027Z,36.73
2023-03-22T01:36:53.447Z,36.34
2023-03-22T01:37:24.887Z,36.45
2023-03-22T01:37:56.313Z,36.52
2023-03-22T01:38:27.743Z,36.54
2023-03-22T01:38:59.140Z,37.12
2023-03-22T01:39:30.586Z,36.55
2023-03-22T01:40:02.009Z,36.78
2023-03-22T01:40:33.432Z,36.84
2023-03-22T01:41:04.828Z,37.14
2023-03-22T01:41:36.221Z,36.96
2023-03-22T01:42:07.655Z,36.69
2023-03-22T01:42:39.160Z,37.01
2023-03-22T01:43:10.572Z,36.73
2023-03-22T01:43:41.962Z,36.80
2023-03-22T01:44:13.377Z,36.93
2023-03-22T01:44:44.829Z,36.90
2023-03-22T01:45:16.338Z,36.54
2023-03-22T01:45:47.802Z,36.64
2023-03-22T01:46:19.282Z,36.95
2023-03-22T01:46:50.705Z,36.93
2023-03-22T01:47:22.122Z,36.85
2023-03-22T01:47:53.604Z,36.79
2023-03-22T01:48:25.064Z,36.33
2023-03-22T01:48:56.505Z,36.75
2023-03-22T01:49:27.922Z,36.44
2023-03-22T01:49:59.360Z,36.42
2023-03-22T01:50:30.755Z,36.20
2023-03-22T01:51:02.170Z,36.71
2023-03-22T01:51:33.579Z,36.53
2023-03-22T01:52:04.997Z,36.44
2023-03-22T01:52:36.429Z,37.17
2023-03-22T01:53:07.845Z,36.52
2023-03-22T01:53:39.244Z,36.51
2023-03-22T01:54:10.683Z,36.57
2023-03-22T01:54:42.116Z,36.17
2023-03-22T01:55:13.573Z,36.30
2023-03-22T01:55:44.971Z,36.26
2023-03-22T01:56:16.387Z,36.04
2023-03-22T01:56:47.793Z,36.59
2023-03-22T01:57:19.184Z,36.73
2023-03-22T01:57:50.596Z,37.09
2023-03-22T01:58:22.046Z,37.01
2023-03-22T01:58:53.448Z,36.81
2023-03-22T01:59:24.859Z,36.39
2023-03-22T01:59:56.288Z,36.44
2023-03-22T02:00:27.684Z,36.57
2023-03-22T02:00:59.103Z,36.63
2023-03-22T02:01:30.556Z,36.19
2023-03-22T02:02:02.011Z,36.82
2023-03-22T02:02:33.426Z,36.45
2023-03-22T02:03:04.951Z,36.32
2023-03-22T02:03:36.434Z,36.18
2023-03-22T02:04:07.853Z,36.60
2023-03-22T02:04:39.336Z,36.81
2023-03-22T02:05:10.794Z,36.96
2023-03-22T02:05:42.214Z,36.58
2023-03-22T02:06:13.607Z,36.60
2023-03-22T02:06:44.993Z,36.41
2023-03-22T02:07:16.435Z,36.32
2023-03-22T02:07:47.830Z,36.45
2023-03-22T02:08:19.227Z,36.96
2023-03-22T02:08:50.640Z,36.73
2023-03-22T02:09:22.132Z,36.24
2023-03-22T02:09:53.594Z,36.32
2023-03-22T02:10:25.028Z,36.88
2023-03-22T02:10:56.440Z,36.93
2023-03-22T02:11:27.855Z,36.59
2023-03-22T02:11:59.271Z,36.63
2023-03-22T02:12:30.685Z,36.63
2023-03-22T02:13:02.079Z,36.79
2023-03-22T02:13:33.486Z,36.52
2023-03-22T02:14:04.875Z,37.04
2023-03-22T02:14:36.268Z,36.75
2023-03-22T02:15:07.696Z,36.59
2023-03-22T02:15:39.173Z,36.34
2023-03-22T02:16:10.686Z,37.02
2023-03-22T02:16:42.165Z,36.46
2023-03-22T02:17:13.603Z,36.72
2023-03-22T02:17:45.011Z,36.51
2023-03-22T02:18:16.421Z,36.76
2023-03-22T02:18:47.838Z,36.79
2023-03-22T02:19:19.261Z,36.84
2023-03-22T02:19:50.680Z,36.81
2023-03-22T02:20:22.133Z,37.09
2023-03-22T02:20:53.547Z,36.84
2023-03-22T02:21:24.958Z,36.49
2023-03-22T02:21:56.359Z,36.58
2023-03-22T02:22:27.784Z,36.68
2023-03-22T02:22:59.189Z,36.74
2023-03-22T02:23:30.578Z,36.27
2023-03-22T02:24:02.051Z,36.54
2023-03-22T02:24:33.467Z,36.78
2023-03-22T02:25:04.855Z,36.93
2023-03-22T02:25:36.297Z,36.67
2023-03-22T02:26:07.726Z,36.59
2023-03-22T02:26:39.159Z,37.01
2023-03-22T02:27:10.598Z,36.68
2023-03-22T02:27:42.013Z,36.66
2023-03-22T02:28:13.416Z,36.69
2023-03-22T02:28:44.813Z,36.79
2023-03-22T02:29:16.259Z,36.83
2023-03-22T02:29:47.678Z,36.86
2023-03-22T02:30:19.095Z,36.43
2023-03-22T02:30:50.515Z,36.55
2023-03-22T02:31:22.032Z,36.39
2023-03-22T02:31:53.495Z,36.49
2023-03-22T02:32:24.906Z,36.61
2023-03-22T02:32:56.301Z,36.71
2023-03-22T02:33:27.692Z,36.55
2023-03-22T02:33:59.092Z,37.15
2023-03-22T02:34:30.512Z,36.93
2023-03-22T02:35:01.934Z,37.01
2023-03-22T02:35:33.385Z,36.52
2023-03-22T02:36:04.798Z,36.83
2023-03-22T02:36:36.243Z,36.75
2023-03-22T02:37:07.670Z,36.80
2023-03-22T02:37:39.082Z,36.73
2023-03-22T02:38:10.492Z,36.69
2023-03-22T02:38:41.912Z,36.85
2023-03-22T02:39:13.339Z,36.72
2023-03-22T02:39:44.928Z,36.01
2023-03-22T02:40:16.341Z,37.01
2023-03-22T02:40:47.759Z,37.15
2023-03-22T02:41:19.169Z,36.37
2023-03-22T02:41:50.586Z,37.05
2023-03-22T02:42:21.986Z,36.70
2023-03-22T02:42:53.384Z,36.34
2023-03-22T02:43:24.791Z,36.73
2023-03-22T02:43:56.195Z,36.93
2023-03-22T02:44:27.586Z,36.75
2023-03-22T02:44:59.001Z,36.78
2023-03-22T02:45:30.415Z,36.47
2023-03-22T02:46:01.810Z,36.48
2023-03-22T02:46:33.276Z,36.91
2023-03-22T02:47:04.731Z,36.72
2023-03-22T02:47:36.170Z,36.81
2023-03-22T02:48:07.606Z,36.76
2023-03-22T02:48:39.043Z,36.68
2023-03-22T02:49:10.440Z,36.27
2023-03-22T02:49:41.826Z,37.00
2023-03-22T02:50:13.218Z,36.45
2023-03-22T02:50:44.625Z,36.68
2023-03-22T02:51:16.033Z,36.64
2023-03-22T02:51:47.432Z,36.40
2023-03-22T02:52:18.850Z,36.57
2023-03-22T02:52:50.249Z,36.25
2023-03-22T02:53:21.669Z,36.57
2023-03-22T02:53:53.077Z,36.83
2023-03-22T02:54:24.507Z,36.60
2023-03-22T02:54:55.907Z,36.81
2023-03-22T02:55:27.341Z,36.58
2023-03-22T02:55:58.771Z,36.71
2023-03-22T02:56:30.169Z,36.93
2023-03-22T02:57:01.573Z,36.83
2023-03-22T02:57:33.005Z,36.23
2023-03-22T02:58:04.390Z,36.40
2023-03-22T02:58:35.790Z,36.77
2023-03-22T02:59:07.208Z,36.77
2023-03-22T02:59:38.702Z,36.83
2023-03-22T03:00:10.102Z,36.80
2023-03-22T03:00:41.997Z,36.48
2023-03-22T03:01:13.685Z,36.64
2023-03-22T03:01:45.153Z,36.87
2023-03-22T03:02:16.645Z,36.56
2023-03-22T03:02:48.098Z,36.53
2023-03-22T03:03:19.497Z,36.24
2023-03-22T03:03:50.920Z,36.28
2023-03-22T03:04:22.318Z,36.57
2023-03-22T03:04:53.726Z,36.81
2023-03-22T03:05:25.153Z,36.36
2023-03-22T03:05:56.563Z,36.35
2023-03-22T03:06:27.983Z,36.64
2023-03-22T03:06:59.400Z,36.20
2023-03-22T03:07:30.834Z,36.87
2023-03-22T03:08:02.247Z,36.82
2023-03-22T03:08:33.714Z,36.44
2023-03-22T03:09:05.208Z,36.51
2023-03-22T03:09:36.674Z,36.52
2023-03-22T03:10:08.079Z,36.76
2023-03-22T03:10:39.642Z,36.26
2023-03-22T03:11:11.116Z,36.38
2023-03-22T03:11:42.527Z,36.47
2023-03-22T03:12:13.951Z,36.33
2023-03-22T03:12:45.379Z,36.73
2023-03-22T03:13:16.792Z,36.76
2023-03-22T03:13:48.349Z,36.49
2023-03-22T03:14:19.755Z,36.51
2023-03-22T03:14:51.175Z,36.58
2023-03-22T03:15:22.577Z,36.92
2023-03-22T03:15:54.054Z,36.78
2023-03-22T03:16:25.506Z,36.66
2023-03-22T03:16:56.948Z,36.76
2023-03-22T03:17:28.369Z,36.90
2023-03-22T03:17:59.809Z,36.61
2023-03-22T03:18:31.371Z,36.71
2023-03-22T03:19:02.800Z,36.82
2023-03-22T03:19:34.219Z,36.39
2023-03-22T03:20:05.634Z,36.32
2023-03-22T03:20:37.229Z,36.47
2023-03-22T03:21:08.747Z,36.54
2023-03-22T03:21:40.196Z,36.24
2023-03-22T03:22:11.607Z,36.29
2023-03-22T03:22:43.012Z,36.35
2023-03-22T03:23:14.427Z,36.23
2023-03-22T03:23:45.844Z,36.17
2023-03-22T03:24:17.259Z,36.31
2023-03-22T03:24:48.655Z,36.49
2023-03-22T03:25:20.063Z,36.61
2023-03-22T03:25:51.469Z,36.37
2023-03-22T03:26:22.880Z,36.28
2023-03-22T03:26:54.262Z,36.73
2023-03-22T03:27:25.682Z,36.59
2023-03-22T03:27:57.085Z,36.48
2023-03-22T03:28:28.510Z,36.59
2023-03-22T03:28:59.935Z,36.38
2023-03-22T03:29:31.358Z,36.16
2023-03-22T03:30:02.758Z,36.44
2023-03-22T03:30:34.165Z,36.69
2023-03-22T03:31:05.570Z,36.38
2023-03-22T03:31:37.021Z,36.59
2023-03-22T03:32:08.435Z,36.94
2023-03-22T03:32:39.852Z,36.52
2023-03-22T03:33:11.265Z,36.58
2023-03-22T03:33:42.668Z,36.35
2023-03-22T03:34:14.103Z,36.48
2023-03-22T03:34:45.516Z,36.59
2023-03-22T03:35:16.958Z,36.44
2023-03-22T03:35:48.561Z,36.47
2023-03-22T03:36:19.997Z,36.40
2023-03-22T03:36:51.407Z,36.44
2023-03-22T03:37:22.841Z,36.90
2023-03-22T03:37:54.254Z,36.53
2023-03-22T03:38:25.669Z,36.79
2023-03-22T03:38:57.065Z,36.71
2023-03-22T03:39:28.510Z,36.59
2023-03-22T03:39:59.939Z,36.83
2023-03-22T03:40:31.340Z,36.90
2023-03-22T03:41:02.756Z,36.52
2023-03-22T03:41:34.177Z,36.52
2023-03-22T03:42:05.577Z,36.44
2023-03-22T03:42:36.992Z,36.15
2023-03-22T03:43:08.398Z,36.45
2023-03-22T03:43:39.787Z,36.83
2023-03-22T03:44:11.205Z,36.41
2023-03-22T03:44:42.662Z,36.88
2023-03-22T03:45:14.070Z,36.78
2023-03-22T03:45:45.483Z,36.58
2023-03-22T03:46:16.917Z,36.24
2023-03-22T03:46:48.325Z,36.52
2023-03-22T03:47:19.746Z,36.48
2023-03-22T03:47:51.176Z,36.36
2023-03-22T03:48:22.685Z,36.22
2023-03-22T03:48:54.166Z,36.15
2023-03-22T03:49:25.568Z,36.58
2023-03-22T03:49:57.003Z,36.37
2023-03-22T03:50:28.408Z,36.94
2023-03-22T03:50:59.840Z,36.91
2023-03-22T03:51:31.239Z,36.39
2023-03-22T03:52:02.648Z,36.87
2023-03-22T03:52:34.047Z,36.83
2023-03-22T03:53:05.545Z,36.62
2023-03-22T03:53:36.950Z,36.39
2023-03-22T03:54:08.361Z,36.49
2023-03-22T03:54:39.823Z,36.57
2023-03-22T03:55:11.223Z,36.81
2023-03-22T03:55:42.626Z,36.58
2023-03-22T03:56:14.018Z,36.56
2023-03-22T03:56:45.427Z,36.56
2023-03-22T03:57:16.863Z,36.73
2023-03-22T03:57:48.259Z,36.33
2023-03-22T03:58:19.665Z,36.72
2023-03-22T03:58:51.087Z,36.32
2023-03-22T03:59:22.504Z,36.64
2023-03-22T03:59:53.940Z,36.60
2023-03-22T04:00:25.595Z,36.57
2023-03-22T04:00:57.005Z,36.63
2023-03-22T04:01:28.412Z,36.83
2023-03-22T04:01:59.827Z,36.50
2023-03-22T04:02:31.274Z,36.54
2023-03-22T04:03:02.682Z,36.75
2023-03-22T04:03:34.074Z,36.82
2023-03-22T04:04:05.539Z,36.91
2023-03-22T04:04:37.135Z,36.28
2023-03-22T04:05:08.859Z,36.59
2023-03-22T04:05:40.311Z,36.77
2023-03-22T04:06:11.725Z,36.82
2023-03-22T04:06:43.143Z,36.93
2023-03-22T04:07:14.540Z,36.57
2023-03-22T04:07:45.938Z,36.53
2023-03-22T04:08:17.365Z,36.25
2023-03-22T04:08:48.790Z,36.65
2023-03-22T04:09:20.205Z,36.58
2023-03-22T04:09:51.615Z,36.60
2023-03-22T04:10:23.023Z,36.81
2023-03-22T04:10:54.497Z,36.27
2023-03-22T04:11:25.912Z,36.66
2023-03-22T04:11:57.315Z,36.62
2023-03-22T04:12:28.738Z,36.40
2023-03-22T04:13:00.166Z,36.64
2023-03-22T04:13:31.579Z,36.48
2023-03-22T04:14:02.991Z,36.71
2023-03-22T04:14:34.405Z,36.58
2023-03-22T04:15:05.815Z,36.89
2023-03-22T04:15:37.239Z,36.63
2023-03-22T04:16:08.660Z,36.34
2023-03-22T04:16:40.118Z,36.29
2023-03-22T04:17:11.542Z,36.81
2023-03-22T04:17:42.964Z,36.38
2023-03-22T04:18:14.373Z,36.51
2023-03-22T04:18:45.783Z,36.92
2023-03-22T04:19:17.190Z,36.62
2023-03-22T04:19:48.603Z,36.40
2023-03-22T04:20:20.008Z,36.65
2023-03-22T04:20:51.407Z,36.72
2023-03-22T04:21:22.870Z,36.87
2023-03-22T04:21:54.278Z,36.62
2023-03-22T04:22:25.695Z,36.67
2023-03-22T04:22:57.111Z,36.13
2023-03-22T04:23:28.519Z,36.53
2023-03-22T04:23:59.929Z,36.49
2023-03-22T04:24:31.365Z,36.35
2023-03-22T04:25:02.769Z,36.90
2023-03-22T04:25:34.164Z,36.72
2023-03-22T04:26:05.575Z,36.56
2023-03-22T04:26:36.989Z,36.57
2023-03-22T04:27:08.393Z,36.32
2023-03-22T04:27:39.830Z,36.38
2023-03-22T04:28:11.239Z,36.38
2023-03-22T04:28:42.662Z,36.71
2023-03-22T04:29:14.090Z,36.47
2023-03-22T04:29:45.524Z,36.51
2023-03-22T04:30:16.940Z,36.26
2023-03-22T04:30:48.375Z,36.71
2023-03-22T04:31:19.822Z,36.79
2023-03-22T04:31:51.298Z,36.43
2023-03-22T04:32:22.687Z,36.30
2023-03-22T04:32:54.089Z,36.22
2023-03-22T04:33:25.483Z,36.72
2023-03-22T04:33:56.882Z,36.18
2023-03-22T04:34:28.278Z,36.57
2023-03-22T04:34:59.701Z,36.57
2023-03-22T04:35:31.114Z,36.65
2023-03-22T04:36:04.510Z,36.51
2023-03-22T04:36:36.064Z,36.36
2023-03-22T04:37:07.498Z,36.79
2023-03-22T04:37:38.979Z,36.92
2023-03-22T04:38:10.391Z,36.86
2023-03-22T04:38:41.786Z,36.62
2023-03-22T04:39:13.192Z,36.56
2023-03-22T04:39:44.602Z,36.64
2023-03-22T04:40:16.016Z,36.21
2023-03-22T04:40:47.427Z,36.55
2023-03-22T04:41:18.819Z,36.99
2023-03-22T04:41:50.220Z,36.62
2023-03-22T04:42:21.653Z,36.79
2023-03-22T04:42:53.048Z,36.75
2023-03-22T04:43:24.450Z,36.37
2023-03-22T04:43:55.845Z,36.29
2023-03-22T04:44:27.234Z,36.79
2023-03-22T04:44:58.639Z,36.77
2023-03-22T04:45:30.052Z,36.69
2023-03-22T04:46:01.476Z,36.44
2023-03-22T04:46:32.905Z,36.51
2023-03-22T04:47:04.329Z,36.47
2023-03-22T04:47:35.728Z,36.70
2023-03-22T04:48:07.175Z,36.60
2023-03-22T04:48:38.601Z,36.33
2023-03-22T04:49:09.999Z,36.57
2023-03-22T04:49:41.387Z,36.83
2023-03-22T04:50:12.809Z,36.48
2023-03-22T04:50:44.218Z,36.21
2023-03-22T04:51:15.624Z,36.63
2023-03-22T04:51:47.016Z,36.47
2023-03-22T04:52:18.431Z,36.19
2023-03-22T04:52:49.987Z,36.71
2023-03-22T04:53:21.478Z,36.19
2023-03-22T04:53:52.896Z,36.30
2023-03-22T04:54:24.302Z,36.43
2023-03-22T04:54:55.728Z,36.45
2023-03-22T04:55:27.120Z,36.46
2023-03-22T04:55:58.511Z,36.65
2023-03-22T04:56:29.928Z,36.26
2023-03-22T04:57:01.338Z,36.83
2023-03-22T04:57:32.736Z,36.61
2023-03-22T04:58:04.192Z,36.53
2023-03-22T04:58:35.618Z,36.75
2023-03-22T04:59:07.006Z,36.49
2023-03-22T04:59:38.400Z,36.35
2023-03-22T05:00:09.931Z,36.80
2023-03-22T05:00:41.597Z,36.62
2023-03-22T05:01:13.196Z,36.84
2023-03-22T05:01:44.641Z,36.79
2023-03-22T05:02:16.106Z,36.26
2023-03-22T05:02:47.574Z,36.40
2023-03-22T05:03:18.988Z,36.82
2023-03-22T05:03:50.387Z,37.05
2023-03-22T05:04:21.945Z,36.61
2023-03-22T05:04:53.354Z,36.70
2023-03-22T05:05:24.776Z,36.26
2023-03-22T05:05:56.191Z,36.52
2023-03-22T05:06:27.605Z,36.93
2023-03-22T05:06:58.992Z,36.60
2023-03-22T05:07:30.840Z,36.60
2023-03-22T05:08:02.291Z,36.23
2023-03-22T05:08:33.682Z,36.70
2023-03-22T05:09:05.240Z,36.52
2023-03-22T05:09:36.629Z,36.41
2023-03-22T05:10:08.085Z,36.89
2023-03-22T05:10:39.648Z,36.46
2023-03-22T05:11:11.154Z,36.21
2023-03-22T05:11:42.555Z,36.68
2023-03-22T05:12:13.959Z,36.55
2023-03-22T05:12:45.375Z,36.92
2023-03-22T05:13:16.806Z,36.80
2023-03-22T05:13:48.364Z,36.56
2023-03-22T05:14:19.852Z,37.02
2023-03-22T05:14:51.414Z,36.95
2023-03-22T05:15:22.885Z,36.61
2023-03-22T05:15:54.352Z,36.42
2023-03-22T05:16:25.800Z,36.56
2023-03-22T05:16:57.289Z,36.97
2023-03-22T05:17:31.720Z,36.50
2023-03-22T05:18:03.146Z,36.84
2023-03-22T05:18:34.556Z,37.00
2023-03-22T05:19:05.962Z,36.59
2023-03-22T05:19:37.399Z,37.04
2023-03-22T05:20:08.817Z,37.09
2023-03-22T05:20:40.482Z,36.90
2023-03-22T05:21:12.012Z,36.75
2023-03-22T05:21:43.406Z,36.82
2023-03-22T05:22:14.805Z,36.79
2023-03-22T05:22:46.203Z,36.67
2023-03-22T05:23:17.593Z,36.93
2023-03-22T05:23:51.405Z,36.91
2023-03-22T05:24:22.988Z,36.78
2023-03-22T05:24:54.399Z,36.98
2023-03-22T05:25:25.914Z,36.84
2023-03-22T05:25:57.425Z,36.83
2023-03-22T05:26:28.862Z,37.45
2023-03-22T05:27:00.310Z,37.31
2023-03-22T05:27:31.903Z,37.10
2023-03-22T05:28:03.350Z,37.19
2023-03-22T05:28:34.768Z,36.98
2023-03-22T05:29:06.185Z,37.11
2023-03-22T05:29:37.590Z,36.93
2023-03-22T05:30:09.006Z,36.73
2023-03-22T05:30:40.630Z,37.15
2023-03-22T05:31:12.202Z,37.15
2023-03-22T05:31:43.641Z,36.96
2023-03-22T05:32:15.047Z,37.42
2023-03-22T05:32:46.465Z,37.39
2023-03-22T05:33:17.871Z,37.22
2023-03-22T05:33:49.277Z,37.34
2023-03-22T05:34:20.670Z,37.05
2023-03-22T05:34:52.086Z,36.64
2023-03-22T05:35:23.553Z,36.63
2023-03-22T05:35:55.022Z,37.04
2023-03-22T05:36:26.442Z,36.69
2023-03-22T05:36:57.844Z,36.88
2023-03-22T05:37:29.280Z,37.10
2023-03-22T05:38:00.690Z,36.67
2023-03-22T05:38:32.104Z,36.88
2023-03-22T05:39:03.511Z,36.64
2023-03-22T05:39:34.927Z,37.11
2023-03-22T05:40:06.471Z,37.06
2023-03-22T05:40:38.248Z,37.05
2023-03-22T05:41:09.780Z,37.37
2023-03-22T05:41:41.177Z,37.72
2023-03-22T05:42:12.612Z,37.16
2023-03-22T05:42:44.017Z,36.99
2023-03-22T05:43:15.423Z,37.26
2023-03-22T05:43:46.826Z,37.58
2023-03-22T05:44:18.253Z,37.21
2023-03-22T05:44:49.649Z,37.30
2023-03-22T05:45:21.045Z,37.46
2023-03-22T05:45:52.492Z,37.16
2023-03-22T05:46:23.952Z,37.34
2023-03-22T05:46:55.449Z,37.43
2023-03-22T05:47:26.950Z,37.35
2023-03-22T05:47:58.387Z,37.69
2023-03-22T05:48:29.832Z,37.68
2023-03-22T05:49:01.234Z,36.89
2023-03-22T05:49:32.626Z,37.72
2023-03-22T05:50:04.066Z,37.52
2023-03-22T05:50:35.464Z,37.85
2023-03-22T05:51:06.911Z,37.42
2023-03-22T05:51:38.327Z,37.52
2023-03-22T05:52:09.718Z,37.96
2023-03-22T05:52:41.118Z,37.52
2023-03-22T05:53:12.553Z,37.97
2023-03-22T05:53:43.959Z,37.68
2023-03-22T05:54:15.354Z,37.77
2023-03-22T05:54:46.769Z,37.81
2023-03-22T05:55:18.173Z,37.60
2023-03-22T05:55:49.579Z,38.18
2023-03-22T05:56:20.999Z,37.80
2023-03-22T05:56:54.671Z,38.27
2023-03-22T05:57:27.079Z,37.79
2023-03-22T05:57:58.501Z,37.67
2023-03-22T05:58:29.916Z,37.82
2023-03-22T05:59:01.318Z,37.81
2023-03-22T05:59:32.731Z,37.83
2023-03-22T06:00:04.167Z,38.19
2023-03-22T06:00:35.562Z,38.24
2023-03-22T06:01:06.987Z,37.67
2023-03-22T06:01:38.513Z,38.34
2023-03-22T06:02:09.983Z,38.25
2023-03-22T06:02:41.482Z,38.23
2023-03-22T06:03:14.625Z,38.46
2023-03-22T06:03:47.151Z,38.62
2023-03-22T06:04:18.546Z,38.92
2023-03-22T06:04:49.969Z,38.42
2023-03-22T06:05:21.395Z,37.93
2023-03-22T06:05:52.800Z,38.41
2023-03-22T06:06:24.235Z,38.73
2023-03-22T06:06:55.680Z,38.30
2023-03-22T06:07:27.091Z,38.28
2023-03-22T06:07:58.480Z,38.53
2023-03-22T06:08:29.885Z,38.07
2023-03-22T06:09:15.976Z,37.85
2023-03-22T06:09:48.567Z,38.44
2023-03-22T06:10:20.005Z,37.97
2023-03-22T06:10:51.402Z,37.89
2023-03-22T06:11:22.791Z,37.66
2023-03-22T06:11:54.200Z,37.75
2023-03-22T06:12:25.929Z,37.51
2023-03-22T06:12:57.834Z,37.29
2023-03-22T06:13:29.366Z,37.91
2023-03-22T06:14:00.813Z,37.72
2023-03-22T06:14:32.204Z,37.63
2023-03-22T06:15:03.631Z,37.24
2023-03-22T06:15:35.079Z,37.43
2023-03-22T06:16:06.572Z,37.49
2023-03-22T06:16:38.064Z,37.27
2023-03-22T06:17:09.531Z,37.58
2023-03-22T06:17:40.947Z,37.22
2023-03-22T06:18:12.332Z,37.47
2023-03-22T06:18:43.727Z,37.62
2023-03-22T06:19:15.140Z,37.81
2023-03-22T06:19:46.535Z,37.63
2023-03-22T06:20:17.953Z,37.11
2023-03-22T06:20:49.386Z,37.30
2023-03-22T06:21:20.792Z,37.18
2023-03-22T06:21:52.204Z,37.12
2023-03-22T06:22:23.621Z,37.18
2023-03-22T06:22:55.040Z,37.48
2023-03-22T06:23:26.440Z,37.24
2023-03-22T06:23:57.861Z,37.36
2023-03-22T06:24:29.297Z,36.74
2023-03-22T06:25:00.700Z,37.40
2023-03-22T06:25:32.099Z,37.11
2023-03-22T06:26:03.500Z,37.05
2023-03-22T06:26:34.915Z,37.76
2023-03-22T06:27:06.321Z,37.36
2023-03-22T06:27:37.740Z,37.49
2023-03-22T06:28:09.184Z,37.50
2023-03-22T06:28:40.597Z,37.28
2023-03-22T06:29:12.018Z,37.41
2023-03-22T06:29:43.446Z,37.82
2023-03-22T06:30:14.862Z,37.25
2023-03-22T06:30:46.293Z,37.05
2023-03-22T06:31:17.803Z,37.14
2023-03-22T06:31:49.244Z,37.53
2023-03-22T06:32:20.734Z,37.59
2023-03-22T06:32:52.161Z,37.19
2023-03-22T06:33:23.574Z,37.55
2023-03-22T06:33:56.022Z,37.26
2023-03-22T06:34:27.493Z,37.72
2023-03-22T06:34:58.926Z,37.60
2023-03-22T06:35:30.362Z,37.30
2023-03-22T06:36:01.773Z,37.41
2023-03-22T06:36:33.190Z,37.52
2023-03-22T06:37:04.599Z,37.57
2023-03-22T06:37:36.012Z,37.39
2023-03-22T06:38:07.475Z,37.01
2023-03-22T06:38:38.883Z,37.36
2023-03-22T06:39:10.285Z,37.65
2023-03-22T06:39:41.707Z,37.34
2023-03-22T06:40:13.153Z,37.10
2023-03-22T06:40:44.645Z,37.25
2023-03-22T06:41:16.038Z,36.88
2023-03-22T06:41:47.464Z,37.45
2023-03-22T06:42:18.873Z,37.33
2023-03-22T06:42:50.276Z,37.24
2023-03-22T06:43:21.718Z,37.29
2023-03-22T06:43:53.101Z,37.20
2023-03-22T06:44:24.525Z,37.19
2023-03-22T06:44:55.998Z,37.81
2023-03-22T06:45:27.484Z,37.31